createdAt,value
2019-05-13T00:01:34.498Z,8.30
2019-05-13T00:04:00.488Z,8.29
2019-05-13T00:06:26.346Z,8.32
2019-05-13T00:08:54.295Z,8.23
2019-05-13T00:11:39.819Z,8.10
2019-05-13T00:14:25.538Z,8.21
2019-05-13T00:16:53.496Z,8.21
2019-05-13T00:19:39.029Z,8.14
2019-05-13T00:22:04.898Z,8.08
2019-05-13T00:24:30.838Z,8.08
2019-05-13T00:26:56.697Z,8.14
2019-05-13T00:29:23.472Z,8.13
2019-05-13T00:31:50.305Z,8.10
2019-05-13T00:34:16.155Z,8.10
2019-05-13T00:36:44.351Z,7.95
2019-05-13T00:39:09.869Z,8.00
2019-05-13T00:41:35.709Z,7.95
2019-05-13T00:44:44.346Z,7.86
2019-05-13T00:47:13.143Z,7.98
2019-05-13T00:49:38.855Z,7.93
2019-05-13T00:52:04.695Z,7.91
2019-05-13T00:54:30.870Z,7.86
2019-05-13T00:56:56.700Z,7.92
2019-05-13T00:59:24.247Z,7.84
2019-05-13T01:01:50.346Z,7.85
2019-05-13T01:04:16.209Z,7.85
2019-05-13T01:06:43.550Z,7.82
2019-05-13T01:09:29.670Z,7.74
2019-05-13T01:12:15.375Z,7.86
2019-05-13T01:14:43.164Z,7.86
2019-05-13T01:17:28.849Z,7.71
2019-05-13T01:19:54.805Z,7.71
2019-05-13T01:22:20.647Z,7.80
2019-05-13T01:24:46.514Z,7.71
2019-05-13T01:27:14.011Z,7.71
2019-05-13T01:29:40.124Z,7.66
2019-05-13T01:32:05.974Z,7.48
2019-05-13T01:34:33.846Z,7.48
2019-05-13T01:37:19.477Z,7.52
2019-05-13T01:40:05.317Z,7.45
2019-05-13T01:42:33.535Z,7.45
2019-05-13T01:44:58.918Z,7.24
2019-05-13T01:47:24.757Z,7.16
2019-05-13T01:49:50.619Z,7.29
2019-05-13T01:52:16.553Z,7.27
2019-05-13T01:54:44.198Z,7.22
2019-05-13T01:57:30.043Z,7.22
2019-05-13T01:59:55.902Z,7.22
2019-05-13T02:02:24.116Z,7.19
2019-05-13T02:04:49.519Z,7.15
2019-05-13T02:07:15.375Z,7.06
2019-05-13T02:12:28.709Z,7.02
2019-05-13T02:14:54.636Z,6.89
2019-05-13T02:17:20.492Z,7.03
2019-05-13T02:19:46.331Z,6.92
2019-05-13T02:22:14.416Z,6.90
2019-05-13T02:24:40.030Z,6.77
2019-05-13T02:27:05.893Z,6.77
2019-05-13T02:29:34.206Z,6.78
2019-05-13T02:32:02.817Z,6.76
2019-05-13T02:34:27.272Z,6.68
2019-05-13T02:36:53.147Z,6.62
2019-05-13T02:39:22.120Z,6.60
2019-05-13T02:41:46.944Z,6.71
2019-05-13T02:44:12.787Z,6.53
2019-05-13T02:46:38.676Z,6.57
2019-05-13T02:49:04.506Z,6.49
2019-05-13T02:51:32.857Z,6.51
2019-05-13T02:53:58.207Z,6.60
2019-05-13T02:56:24.110Z,6.47
2019-05-13T02:58:52.608Z,6.37
2019-05-13T03:01:17.871Z,6.31
2019-05-13T03:03:44.534Z,6.30
2019-05-13T03:06:13.309Z,6.17
2019-05-13T03:08:48.800Z,6.17
2019-05-13T03:11:07.321Z,6.15
2019-05-13T03:13:33.361Z,6.03
2019-05-13T03:16:19.146Z,5.99
2019-05-13T03:18:45.122Z,6.01
2019-05-13T03:21:12.803Z,5.98
2019-05-13T03:23:38.820Z,5.95
2019-05-13T03:26:04.751Z,5.90
2019-05-13T03:28:33.666Z,5.95
2019-05-13T03:30:58.467Z,5.83
2019-05-13T03:33:28.023Z,5.71
2019-05-13T03:35:55.681Z,5.61
2019-05-13T03:39:09.830Z,5.64
2019-05-13T03:42:12.292Z,5.66
2019-05-13T03:45:21.955Z,5.53
2019-05-13T03:48:29.625Z,5.48
2019-05-13T03:51:37.106Z,5.39
2019-05-13T03:56:57.559Z,5.33
2019-05-13T03:59:23.497Z,5.24
2019-05-13T04:01:52.418Z,5.23
2019-05-13T04:04:17.198Z,5.21
2019-05-13T04:06:43.213Z,5.34
2019-05-13T04:09:25.039Z,5.25
2019-05-13T04:12:18.473Z,5.31
2019-05-13T04:15:04.347Z,5.47
2019-05-13T04:20:45.554Z,5.48
2019-05-13T04:23:12.875Z,5.53
2019-05-13T04:26:23.621Z,5.48
2019-05-13T04:28:48.649Z,5.54
2019-05-13T04:31:14.836Z,5.55
2019-05-13T04:33:42.923Z,5.61
2019-05-13T04:36:13.256Z,5.67
2019-05-13T04:38:38.028Z,5.60
2019-05-13T04:41:45.540Z,5.85
2019-05-13T04:44:32.387Z,5.86
2019-05-13T04:46:59.278Z,5.72
2019-05-13T04:49:25.210Z,5.77
2019-05-13T04:52:13.539Z,5.87
2019-05-13T04:54:39.562Z,5.86
2019-05-13T04:57:05.524Z,5.84
2019-05-13T04:59:34.070Z,6.01
2019-05-13T05:02:49.034Z,6.15
2019-05-13T05:05:52.657Z,6.17
2019-05-13T05:08:57.679Z,6.06
2019-05-13T05:12:03.295Z,6.32
2019-05-13T05:15:11.989Z,6.66
2019-05-13T05:18:16.340Z,6.56
2019-05-13T05:21:23.817Z,6.52
2019-05-13T05:24:29.402Z,6.75
2019-05-13T05:27:34.996Z,6.81
2019-05-13T05:30:41.215Z,6.77
2019-05-13T05:33:48.763Z,6.63
2019-05-13T05:36:56.251Z,6.76
2019-05-13T05:39:42.128Z,6.83
2019-05-13T05:42:51.735Z,7.19
2019-05-13T05:45:17.570Z,7.35
2019-05-13T05:48:25.043Z,7.48
2019-05-13T05:50:51.650Z,7.61
2019-05-13T05:54:02.494Z,7.91
2019-05-13T06:00:26.779Z,8.18
2019-05-13T06:03:34.227Z,8.22
2019-05-13T06:06:41.739Z,8.17
2019-05-13T06:09:07.646Z,8.18
2019-05-13T06:12:15.132Z,8.36
2019-05-13T06:15:22.682Z,8.81
2019-05-13T06:17:48.505Z,8.79
2019-05-13T06:20:14.454Z,9.38
2019-05-13T06:22:42.475Z,9.52
2019-05-13T06:25:52.393Z,9.15
2019-05-13T06:28:17.656Z,9.32
2019-05-13T06:30:43.602Z,9.90
2019-05-13T06:33:51.538Z,10.04
2019-05-13T06:36:17.424Z,10.05
2019-05-13T06:38:43.603Z,9.61
2019-05-13T06:41:14.047Z,10.11
2019-05-13T06:43:37.420Z,10.56
2019-05-13T06:46:03.324Z,10.44
2019-05-13T06:48:29.155Z,10.49
2019-05-13T06:50:54.986Z,10.85
2019-05-13T06:53:21.720Z,10.40
2019-05-13T06:55:48.730Z,10.84
2019-05-13T06:58:14.730Z,10.33
2019-05-13T07:01:22.232Z,10.57
2019-05-13T07:04:08.080Z,11.05
2019-05-13T07:07:08.954Z,10.72
2019-05-13T07:09:21.775Z,10.72
2019-05-13T07:11:47.678Z,10.94
2019-05-13T07:14:13.579Z,10.69
2019-05-13T07:16:41.981Z,11.24
2019-05-13T07:19:27.270Z,11.53
2019-05-13T07:21:53.345Z,11.53
2019-05-13T07:24:41.290Z,11.35
2019-05-13T07:27:26.832Z,11.73
2019-05-13T07:30:12.511Z,11.86
2019-05-13T07:32:38.479Z,11.86
2019-05-13T07:35:26.115Z,11.92
2019-05-13T07:37:52.077Z,11.83
2019-05-13T07:40:18.055Z,12.35
2019-05-13T07:42:43.952Z,12.24
2019-05-13T07:45:12.161Z,12.04
2019-05-13T07:50:13.365Z,11.89
2019-05-13T07:52:41.893Z,11.25
2019-05-13T07:55:22.273Z,11.90
2019-05-13T07:58:02.235Z,11.82
2019-05-13T08:00:28.274Z,11.82
2019-05-13T08:02:54.097Z,12.14
2019-05-13T08:05:22.217Z,12.52
2019-05-13T08:07:47.746Z,12.02
2019-05-13T08:10:13.906Z,12.02
2019-05-13T08:12:41.290Z,12.49
2019-05-13T08:15:49.146Z,12.69
2019-05-13T08:18:34.903Z,12.89
2019-05-13T08:21:02.102Z,12.89
2019-05-13T08:23:28.696Z,12.29
2019-05-13T08:25:54.652Z,12.72
2019-05-13T08:28:22.535Z,12.23
2019-05-13T08:30:48.366Z,13.24
2019-05-13T08:33:34.177Z,12.38
2019-05-13T08:36:01.648Z,12.79
2019-05-13T08:38:28.016Z,12.60
2019-05-13T08:40:53.985Z,12.60
2019-05-13T08:43:22.382Z,12.03
2019-05-13T08:45:47.701Z,11.86
2019-05-13T08:48:13.759Z,12.43
2019-05-13T08:53:53.854Z,11.82
2019-05-13T08:56:32.771Z,11.90
2019-05-13T08:59:01.065Z,11.90
2019-05-13T09:01:26.706Z,12.26
2019-05-13T09:04:12.541Z,11.54
2019-05-13T09:06:58.261Z,12.04
2019-05-13T09:09:24.116Z,12.04
2019-05-13T09:11:51.580Z,12.49
2019-05-13T09:14:17.898Z,12.09
2019-05-13T09:16:43.729Z,12.02
2019-05-13T09:19:13.545Z,11.99
2019-05-13T09:21:37.558Z,12.04
2019-05-13T09:24:20.367Z,11.98
2019-05-13T09:26:31.734Z,11.47
2019-05-13T09:29:19.139Z,12.13
2019-05-13T09:31:45.094Z,12.13
2019-05-13T09:34:12.229Z,12.47
2019-05-13T09:36:38.775Z,12.38
2019-05-13T09:39:46.269Z,13.29
2019-05-13T09:42:12.834Z,13.30
2019-05-13T09:44:41.957Z,12.83
2019-05-13T09:47:07.657Z,12.91
2019-05-13T09:49:33.496Z,12.84
2019-05-13T09:52:01.561Z,13.30
2019-05-13T09:54:27.102Z,13.58
2019-05-13T09:56:52.968Z,13.58
2019-05-13T09:59:18.825Z,13.89
2019-05-13T10:01:44.690Z,13.17
2019-05-13T10:04:11.946Z,13.12
2019-05-13T10:06:58.368Z,12.71
2019-05-13T10:09:24.239Z,12.71
2019-05-13T10:11:51.947Z,13.13
2019-05-13T10:14:17.943Z,13.47
2019-05-13T10:16:43.788Z,13.78
2019-05-13T10:19:12.364Z,13.55
2019-05-13T10:21:37.680Z,13.75
2019-05-13T10:24:03.720Z,13.44
2019-05-13T10:26:32.044Z,13.09
2019-05-13T10:28:57.624Z,13.48
2019-05-13T10:31:23.476Z,12.78
2019-05-13T10:33:51.297Z,13.29
2019-05-13T10:36:17.145Z,13.90
2019-05-13T10:38:43.080Z,13.41
2019-05-13T10:41:11.780Z,13.04
2019-05-13T10:43:56.571Z,13.23
2019-05-13T10:46:42.784Z,13.25
2019-05-13T10:49:08.651Z,13.25
2019-05-13T10:51:34.606Z,13.88
2019-05-13T10:54:02.574Z,14.33
2019-05-13T10:56:28.546Z,14.19
2019-05-13T10:58:54.372Z,14.54
2019-05-13T11:01:22.524Z,14.30
2019-05-13T11:03:48.170Z,14.34
2019-05-13T11:06:14.125Z,14.45
2019-05-13T11:08:42.275Z,13.81
2019-05-13T11:11:07.802Z,14.46
2019-05-13T11:13:50.513Z,14.45
2019-05-13T11:16:02.435Z,14.22
2019-05-13T11:18:29.362Z,14.24
2019-05-13T11:20:55.214Z,14.29
2019-05-13T11:23:23.279Z,14.90
2019-05-13T11:26:08.656Z,14.43
2019-05-13T11:28:34.727Z,14.43
2019-05-13T11:31:22.412Z,14.74
2019-05-13T11:33:48.308Z,14.43
2019-05-13T11:36:18.927Z,15.07
2019-05-13T11:38:43.378Z,15.17
2019-05-13T11:41:11.842Z,15.11
2019-05-13T11:43:37.626Z,15.52
2019-05-13T11:46:23.357Z,15.00
2019-05-13T11:48:51.705Z,14.53
2019-05-13T11:51:17.058Z,14.49
2019-05-13T11:53:42.908Z,14.88
2019-05-13T11:56:09.274Z,15.82
2019-05-13T11:58:36.499Z,14.82
2019-05-13T12:03:43.480Z,15.92
2019-05-13T12:06:07.954Z,16.65
2019-05-13T12:08:34.432Z,16.19
2019-05-13T12:11:04.065Z,15.90
2019-05-13T12:13:29.436Z,15.40
2019-05-13T12:15:55.272Z,15.57
2019-05-13T12:18:23.675Z,15.64
2019-05-13T12:20:53.596Z,15.38
2019-05-13T12:23:17.290Z,15.64
2019-05-13T12:25:43.954Z,16.28
2019-05-13T12:28:11.539Z,15.60
2019-05-13T12:30:39.297Z,16.10
2019-05-13T12:33:06.957Z,15.55
2019-05-13T12:35:32.977Z,16.23
2019-05-13T12:37:58.899Z,15.85
2019-05-13T12:43:13.466Z,15.13
2019-05-13T12:45:43.095Z,15.39
2019-05-13T12:48:07.886Z,15.43
2019-05-13T12:50:33.808Z,16.01
2019-05-13T12:53:02.490Z,15.24
2019-05-13T12:55:27.437Z,16.14
2019-05-13T12:57:53.313Z,16.37
2019-05-13T13:01:01.594Z,16.03
2019-05-13T13:03:28.605Z,14.74
2019-05-13T13:06:21.148Z,14.76
2019-05-13T13:08:38.695Z,15.75
2019-05-13T13:10:53.396Z,15.38
2019-05-13T13:13:18.021Z,16.79
2019-05-13T13:15:48.644Z,15.53
2019-05-13T13:18:14.310Z,15.86
2019-05-13T13:20:42.223Z,16.04
2019-05-13T13:23:08.081Z,16.25
2019-05-13T13:25:34.059Z,15.90
2019-05-13T13:28:10.550Z,16.25
2019-05-13T13:31:09.301Z,16.51
2019-05-13T13:33:35.196Z,15.87
2019-05-13T13:36:04.950Z,16.04
2019-05-13T13:38:28.802Z,16.20
2019-05-13T13:40:54.647Z,15.62
2019-05-13T13:43:25.044Z,16.07
2019-05-13T13:46:11.693Z,16.05
2019-05-13T13:48:16.288Z,15.90
2019-05-13T13:53:27.949Z,15.90
2019-05-13T13:55:55.984Z,16.42
2019-05-13T13:58:25.479Z,16.38
2019-05-13T14:01:01.866Z,16.65
2019-05-13T14:03:17.379Z,16.73
2019-05-13T14:05:43.339Z,16.77
2019-05-13T14:08:09.217Z,16.69
2019-05-13T14:10:35.187Z,16.07
2019-05-13T14:13:04.647Z,14.87
2019-05-13T14:15:31.227Z,14.72
2019-05-13T14:17:56.599Z,14.73
2019-05-13T14:20:22.581Z,15.61
2019-05-13T14:22:48.422Z,15.70
2019-05-13T14:28:02.809Z,15.77
2019-05-13T14:30:31.264Z,16.18
2019-05-13T14:32:58.316Z,16.29
2019-05-13T14:35:24.284Z,16.00
2019-05-13T14:37:51.847Z,15.26
2019-05-13T14:40:18.513Z,15.84
2019-05-13T14:42:44.375Z,15.77
2019-05-13T14:45:52.265Z,16.02
2019-05-13T14:48:18.216Z,16.09
2019-05-13T14:50:44.107Z,16.31
2019-05-13T14:53:09.986Z,15.75
2019-05-13T14:55:35.915Z,15.87
2019-05-13T14:58:02.160Z,16.32
2019-05-13T15:01:17.620Z,15.57
2019-05-13T15:03:57.434Z,15.62
2019-05-13T15:06:23.425Z,16.05
2019-05-13T15:08:49.268Z,15.70
2019-05-13T15:11:15.247Z,15.85
2019-05-13T15:13:42.529Z,15.77
2019-05-13T15:19:03.222Z,15.62
2019-05-13T15:21:29.138Z,15.77
2019-05-13T15:23:55.122Z,15.88
2019-05-13T15:29:35.028Z,15.53
2019-05-13T15:32:02.076Z,15.44
2019-05-13T15:35:13.478Z,15.71
2019-05-13T15:38:23.217Z,15.19
2019-05-13T15:40:49.177Z,15.50
2019-05-13T15:43:15.277Z,14.84
2019-05-13T15:45:42.500Z,14.73
2019-05-13T15:48:11.466Z,14.64
2019-05-13T15:50:36.691Z,14.94
2019-05-13T15:53:04.554Z,15.49
2019-05-13T15:55:30.526Z,14.93
2019-05-13T15:57:56.507Z,15.36
2019-05-13T16:03:29.912Z,15.00
2019-05-13T16:05:55.768Z,14.54
2019-05-13T16:11:15.118Z,14.32
2019-05-13T16:13:42.834Z,14.53
2019-05-13T16:16:08.689Z,14.15
2019-05-13T16:18:35.108Z,14.64
2019-05-13T16:21:01.750Z,13.82
2019-05-13T16:23:28.950Z,13.73
2019-05-13T16:26:14.924Z,13.42
2019-05-13T16:28:41.809Z,13.79
2019-05-13T16:31:11.794Z,13.42
2019-05-13T16:33:37.281Z,13.56
2019-05-13T16:36:03.162Z,13.66
2019-05-13T16:38:49.017Z,13.26
2019-05-13T16:41:56.736Z,13.05
2019-05-13T16:47:36.125Z,12.95
2019-05-13T16:50:43.643Z,12.95
2019-05-13T16:53:31.457Z,12.83
2019-05-13T16:55:57.184Z,12.60
2019-05-13T16:58:24.855Z,12.60
2019-05-13T17:01:32.997Z,12.35
2019-05-13T17:04:18.823Z,12.22
2019-05-13T17:06:44.697Z,12.23
2019-05-13T17:09:11.542Z,12.23
2019-05-13T17:11:38.587Z,12.22
2019-05-13T17:14:05.894Z,12.21
2019-05-13T17:16:32.495Z,12.29
2019-05-13T17:19:18.377Z,12.16
2019-05-13T17:24:16.892Z,12.23
2019-05-13T17:26:42.863Z,12.28
2019-05-13T17:29:08.684Z,12.09
2019-05-13T17:31:34.553Z,11.95
2019-05-13T17:34:01.528Z,11.84
2019-05-13T17:36:48.241Z,11.59
2019-05-13T17:39:33.968Z,11.75
2019-05-13T17:42:21.498Z,11.72
2019-05-13T17:45:07.301Z,11.63
2019-05-13T17:47:53.185Z,11.63
2019-05-13T17:50:19.205Z,11.65
2019-05-13T17:53:05.143Z,11.61
2019-05-13T17:55:44.901Z,11.48
2019-05-13T17:58:23.976Z,11.54
2019-05-13T18:00:52.008Z,11.54
2019-05-13T18:03:17.730Z,11.45
2019-05-13T18:05:43.616Z,11.38
2019-05-13T18:08:11.294Z,11.18
2019-05-13T18:10:57.323Z,11.24
2019-05-13T18:13:43.744Z,11.04
2019-05-13T18:16:12.549Z,11.04
2019-05-13T18:18:43.994Z,11.14
2019-05-13T18:21:06.464Z,11.14
2019-05-13T18:23:32.550Z,11.21
2019-05-13T18:25:58.447Z,11.09
2019-05-13T18:28:30.556Z,11.11
2019-05-13T18:30:52.127Z,10.73
2019-05-13T18:33:17.980Z,10.73
2019-05-13T18:35:43.869Z,10.84
2019-05-13T18:38:11.738Z,10.87
2019-05-13T18:40:37.491Z,10.80
2019-05-13T18:43:03.396Z,10.61
2019-05-13T18:45:29.236Z,10.58
2019-05-13T18:48:15.017Z,10.45
2019-05-13T18:51:01.345Z,10.39
2019-05-13T18:53:27.306Z,10.40
2019-05-13T18:55:53.256Z,10.39
2019-05-13T18:58:19.153Z,10.43
2019-05-13T19:00:45.188Z,10.53
2019-05-13T19:03:13.243Z,10.52
2019-05-13T19:05:59.010Z,10.43
2019-05-13T19:08:24.858Z,10.43
2019-05-13T19:10:52.233Z,10.34
2019-05-13T19:13:18.513Z,10.31
2019-05-13T19:16:04.346Z,10.36
2019-05-13T19:18:32.018Z,10.27
2019-05-13T19:20:58.088Z,10.07
2019-05-13T19:23:23.965Z,9.96
2019-05-13T19:25:51.342Z,9.84
2019-05-13T19:28:17.743Z,9.83
2019-05-13T19:31:03.596Z,9.73
2019-05-13T19:33:49.334Z,9.18
2019-05-13T19:36:35.079Z,8.84
2019-05-13T19:39:01.828Z,8.84
2019-05-13T19:41:28.711Z,9.15
2019-05-13T19:43:54.587Z,9.17
2019-05-13T19:46:20.517Z,8.95
2019-05-13T19:48:46.379Z,8.97
2019-05-13T19:51:12.211Z,9.07
2019-05-13T19:53:38.078Z,8.84
2019-05-13T19:56:04.175Z,8.99
2019-05-13T19:58:49.896Z,8.12
2019-05-13T20:01:15.855Z,8.12
2019-05-13T20:03:42.416Z,8.47
2019-05-13T20:06:09.479Z,7.80
2019-05-13T20:08:35.330Z,7.80
2019-05-13T20:11:02.075Z,7.60
2019-05-13T20:13:28.935Z,7.54
2019-05-13T20:15:54.881Z,7.64
2019-05-13T20:18:22.944Z,7.52
2019-05-13T20:21:10.457Z,7.24
2019-05-13T20:23:36.482Z,7.24
2019-05-13T20:26:02.419Z,7.17
2019-05-13T20:28:28.249Z,7.52
2019-05-13T20:30:54.113Z,7.14
2019-05-13T20:33:22.016Z,6.97
2019-05-13T20:35:47.707Z,7.29
2019-05-13T20:38:13.561Z,7.16
2019-05-13T20:40:41.392Z,7.31
2019-05-13T20:43:07.183Z,7.44
2019-05-13T20:46:14.669Z,7.55
2019-05-13T20:48:41.149Z,7.04
2019-05-13T20:51:08.367Z,7.17
2019-05-13T20:53:34.217Z,6.98
2019-05-13T20:56:01.802Z,6.70
2019-05-13T20:58:27.829Z,6.49
2019-05-13T21:00:53.663Z,6.76
2019-05-13T21:03:19.505Z,6.70
2019-05-13T21:05:45.349Z,6.93
2019-05-13T21:08:11.189Z,6.79
2019-05-13T21:10:37.132Z,6.67
2019-05-13T21:13:03.063Z,6.58
2019-05-13T21:15:28.912Z,6.35
2019-05-13T21:17:54.749Z,6.44
2019-05-13T21:20:25.553Z,6.51
2019-05-13T21:22:48.370Z,6.50
2019-05-13T21:25:14.291Z,6.37
2019-05-13T21:27:42.134Z,6.37
2019-05-13T21:30:27.769Z,6.37
2019-05-13T21:32:53.617Z,6.37
2019-05-13T21:35:26.782Z,6.17
2019-05-13T21:37:52.821Z,5.85
2019-05-13T21:40:18.870Z,5.88
2019-05-13T21:43:26.384Z,5.83
2019-05-13T21:45:52.506Z,5.63
2019-05-13T21:48:21.758Z,5.70
2019-05-13T21:50:47.928Z,5.59
2019-05-13T21:53:14.013Z,6.02
2019-05-13T21:58:33.189Z,5.89
2019-05-13T22:01:42.316Z,5.69
2019-05-13T22:04:08.548Z,5.50
2019-05-13T22:06:34.424Z,5.50
2019-05-13T22:09:00.274Z,5.76
2019-05-13T22:11:26.131Z,5.88
2019-05-13T22:13:51.971Z,5.75
2019-05-13T22:16:17.803Z,5.74
2019-05-13T22:18:43.665Z,5.53
2019-05-13T22:21:11.691Z,5.42
2019-05-13T22:23:37.325Z,5.63
2019-05-13T22:26:03.180Z,5.65
2019-05-13T22:28:31.174Z,5.62
2019-05-13T22:31:16.622Z,5.48
2019-05-13T22:33:45.072Z,5.48
2019-05-13T22:36:11.851Z,5.20
2019-05-13T22:38:38.053Z,5.10
2019-05-13T22:41:04.002Z,4.87
2019-05-13T22:43:32.063Z,5.05
2019-05-13T22:45:57.624Z,5.07
2019-05-13T22:48:23.471Z,5.00
2019-05-13T22:50:49.422Z,4.50
2019-05-13T22:53:15.255Z,4.26
2019-05-13T22:55:41.768Z,4.31
2019-05-13T22:58:08.862Z,4.33
2019-05-13T23:00:34.785Z,4.66
2019-05-13T23:03:01.660Z,4.63
2019-05-13T23:05:28.365Z,4.63
2019-05-13T23:07:54.225Z,4.37
2019-05-13T23:10:22.350Z,4.04
2019-05-13T23:12:47.823Z,3.81
2019-05-13T23:15:55.293Z,3.91
2019-05-13T23:18:22.215Z,3.87
2019-05-13T23:20:48.983Z,3.62
2019-05-13T23:23:14.847Z,3.52
2019-05-13T23:25:42.977Z,3.62
2019-05-13T23:28:08.451Z,3.49
2019-05-13T23:30:34.287Z,3.42
2019-05-13T23:33:02.262Z,4.08
2019-05-13T23:35:27.890Z,4.07
2019-05-13T23:37:53.749Z,3.75
2019-05-13T23:40:19.705Z,3.66
2019-05-13T23:42:45.655Z,4.12
2019-05-13T23:45:11.678Z,4.14
2019-05-13T23:47:37.582Z,3.48
2019-05-13T23:50:45.063Z,3.40
2019-05-13T23:53:11.005Z,3.37
2019-05-13T23:58:08.825Z,3.11
